createdAt,value
2017-03-03T00:00:12.359Z,930.56
2017-03-03T00:00:40.465Z,930.56
2017-03-03T00:01:08.554Z,930.55
2017-03-03T00:01:36.697Z,930.56
2017-03-03T00:02:04.695Z,930.58
2017-03-03T00:02:32.761Z,930.61
2017-03-03T00:03:01.018Z,930.61
2017-03-03T00:03:29.279Z,930.61
2017-03-03T00:03:57.532Z,930.69
2017-03-03T00:04:25.531Z,930.68
2017-03-03T00:04:53.526Z,930.62
2017-03-03T00:05:21.704Z,930.66
2017-03-03T00:05:50.008Z,930.66
2017-03-03T00:06:18.187Z,930.66
2017-03-03T00:06:46.506Z,930.65
2017-03-03T00:07:14.770Z,930.65
2017-03-03T00:07:43.046Z,930.64
2017-03-03T00:08:11.104Z,930.63
2017-03-03T00:08:39.401Z,930.62
2017-03-03T00:09:07.528Z,930.67
2017-03-03T00:09:35.699Z,930.62
2017-03-03T00:10:03.780Z,930.63
2017-03-03T00:10:32.093Z,930.62
2017-03-03T00:11:00.326Z,930.63
2017-03-03T00:11:28.656Z,930.61
2017-03-03T00:11:56.871Z,930.64
2017-03-03T00:12:24.961Z,930.61
2017-03-03T00:12:53.106Z,930.6
2017-03-03T00:13:21.352Z,930.6
2017-03-03T00:13:49.541Z,930.6
2017-03-03T00:14:17.574Z,930.63
2017-03-03T00:14:45.778Z,930.62
2017-03-03T00:15:13.730Z,930.6
2017-03-03T00:15:41.816Z,930.62
2017-03-03T00:16:09.966Z,930.63
2017-03-03T00:16:38.249Z,930.6
2017-03-03T00:17:06.307Z,930.62
2017-03-03T00:17:34.469Z,930.62
2017-03-03T00:18:02.577Z,930.63
2017-03-03T00:18:30.660Z,930.63
2017-03-03T00:18:58.760Z,930.63
2017-03-03T00:19:27.003Z,930.66
2017-03-03T00:19:55.125Z,930.64
2017-03-03T00:20:23.416Z,930.64
2017-03-03T00:20:51.674Z,930.66
2017-03-03T00:21:19.763Z,930.67
2017-03-03T00:21:48.008Z,930.62
2017-03-03T00:22:16.229Z,930.61
2017-03-03T00:22:44.521Z,930.62
2017-03-03T00:23:12.596Z,930.66
2017-03-03T00:23:40.906Z,930.62
2017-03-03T00:24:09.107Z,930.64
2017-03-03T00:24:37.292Z,930.65
2017-03-03T00:25:05.556Z,930.63
2017-03-03T00:25:33.639Z,930.64
2017-03-03T00:26:01.884Z,930.65
2017-03-03T00:26:30.093Z,930.65
2017-03-03T00:26:58.283Z,930.67
2017-03-03T00:27:26.532Z,930.68
2017-03-03T00:27:54.616Z,930.69
2017-03-03T00:28:22.829Z,930.66
2017-03-03T00:28:50.999Z,930.65
2017-03-03T00:29:19.111Z,930.64
2017-03-03T00:29:47.218Z,930.65
2017-03-03T00:30:15.349Z,930.65
2017-03-03T00:30:43.715Z,930.66
2017-03-03T00:31:11.927Z,930.64
2017-03-03T00:31:40.068Z,930.62
2017-03-03T00:32:08.177Z,930.63
2017-03-03T00:32:36.330Z,930.67
2017-03-03T00:33:04.619Z,930.61
2017-03-03T00:33:32.867Z,930.63
2017-03-03T00:34:01.026Z,930.62
2017-03-03T00:34:29.198Z,930.63
2017-03-03T00:34:57.365Z,930.6
2017-03-03T00:35:25.467Z,930.63
2017-03-03T00:35:53.629Z,930.62
2017-03-03T00:36:21.725Z,930.62
2017-03-03T00:36:49.943Z,930.59
2017-03-03T00:37:18.118Z,930.58
2017-03-03T00:37:46.233Z,930.6
2017-03-03T00:38:14.504Z,930.56
2017-03-03T00:38:42.687Z,930.61
2017-03-03T00:39:11.004Z,930.6
2017-03-03T00:39:39.256Z,930.6
2017-03-03T00:40:07.282Z,930.61
2017-03-03T00:40:35.569Z,930.59
2017-03-03T00:41:03.761Z,930.63
2017-03-03T00:41:31.945Z,930.64
2017-03-03T00:42:00.202Z,930.64
2017-03-03T00:42:29.094Z,930.64
2017-03-03T00:42:57.194Z,930.59
2017-03-03T00:43:25.380Z,930.61
2017-03-03T00:43:53.675Z,930.61
2017-03-03T00:44:21.900Z,930.64
2017-03-03T00:44:49.965Z,930.63
2017-03-03T00:45:18.131Z,930.61
2017-03-03T00:45:46.234Z,930.61
2017-03-03T00:46:14.425Z,930.6
2017-03-03T00:46:42.741Z,930.61
2017-03-03T00:47:10.870Z,930.61
2017-03-03T00:47:39.013Z,930.6
2017-03-03T00:48:07.145Z,930.61
2017-03-03T00:48:35.335Z,930.59
2017-03-03T00:49:03.475Z,930.63
2017-03-03T00:49:31.805Z,930.61
2017-03-03T00:50:00.058Z,930.61
2017-03-03T00:50:28.253Z,930.61
2017-03-03T00:50:56.446Z,930.67
2017-03-03T00:51:24.582Z,930.66
2017-03-03T00:51:52.663Z,930.65
2017-03-03T00:52:20.804Z,930.64
2017-03-03T00:52:49.093Z,930.64
2017-03-03T00:53:17.301Z,930.66
2017-03-03T00:53:45.547Z,930.67
2017-03-03T00:54:13.655Z,930.66
2017-03-03T00:54:41.717Z,930.67
2017-03-03T00:55:09.815Z,930.67
2017-03-03T00:55:38.102Z,930.68
2017-03-03T00:56:06.467Z,930.7
2017-03-03T00:56:34.761Z,930.7
2017-03-03T00:57:02.847Z,930.72
2017-03-03T00:57:30.913Z,930.69
2017-03-03T00:57:59.180Z,930.71
2017-03-03T00:58:27.280Z,930.73
2017-03-03T00:58:55.280Z,930.72
2017-03-03T00:59:23.364Z,930.68
2017-03-03T00:59:51.426Z,930.73
2017-03-03T01:00:19.537Z,930.72
2017-03-03T01:00:47.679Z,930.74
2017-03-03T01:01:16.028Z,930.76
2017-03-03T01:01:44.157Z,930.73
2017-03-03T01:02:12.321Z,930.71
2017-03-03T01:02:40.603Z,930.71
2017-03-03T01:03:08.555Z,930.72
2017-03-03T01:03:36.694Z,930.75
2017-03-03T01:04:04.999Z,930.76
2017-03-03T01:04:33.162Z,930.75
2017-03-03T01:05:01.463Z,930.74
2017-03-03T01:05:29.561Z,930.73
2017-03-03T01:05:57.832Z,930.73
2017-03-03T01:06:25.923Z,930.73
2017-03-03T01:06:54.102Z,930.74
2017-03-03T01:07:22.368Z,930.77
2017-03-03T01:07:50.494Z,930.73
2017-03-03T01:08:18.599Z,930.74
2017-03-03T01:08:46.800Z,930.75
2017-03-03T01:09:14.864Z,930.75
2017-03-03T01:09:43.085Z,930.75
2017-03-03T01:10:11.185Z,930.71
2017-03-03T01:10:39.378Z,930.75
2017-03-03T01:11:07.930Z,930.74
2017-03-03T01:11:36.097Z,930.79
2017-03-03T01:12:04.301Z,930.76
2017-03-03T01:12:32.197Z,930.75
2017-03-03T01:13:00.372Z,930.74
2017-03-03T01:13:28.658Z,930.72
2017-03-03T01:13:56.657Z,930.73
2017-03-03T01:14:24.815Z,930.74
2017-03-03T01:14:53.101Z,930.78
2017-03-03T01:15:21.354Z,930.76
2017-03-03T01:15:49.560Z,930.73
2017-03-03T01:16:17.720Z,930.78
2017-03-03T01:16:46.005Z,930.77
2017-03-03T01:17:14.229Z,930.77
2017-03-03T01:17:42.312Z,930.72
2017-03-03T01:18:10.352Z,930.78
2017-03-03T01:18:38.545Z,930.75
2017-03-03T01:19:06.453Z,930.77
2017-03-03T01:19:34.596Z,930.8
2017-03-03T01:20:02.755Z,930.79
2017-03-03T01:20:30.944Z,930.78
2017-03-03T01:20:59.254Z,930.81
2017-03-03T01:21:27.541Z,930.84
2017-03-03T01:21:55.759Z,930.81
2017-03-03T01:22:23.906Z,930.81
2017-03-03T01:22:52.003Z,930.77
2017-03-03T01:23:20.213Z,930.84
2017-03-03T01:23:48.402Z,930.83
2017-03-03T01:24:16.492Z,930.83
2017-03-03T01:24:44.584Z,930.84
2017-03-03T01:25:12.827Z,930.85
2017-03-03T01:25:40.914Z,930.82
2017-03-03T01:26:09.195Z,930.83
2017-03-03T01:26:37.214Z,930.84
2017-03-03T01:27:05.462Z,930.89
2017-03-03T01:27:33.565Z,930.9
2017-03-03T01:28:01.573Z,930.91
2017-03-03T01:28:29.786Z,930.93
2017-03-03T01:28:58.015Z,930.95
2017-03-03T01:29:26.198Z,930.93
2017-03-03T01:29:54.463Z,930.95
2017-03-03T01:30:22.733Z,930.94
2017-03-03T01:30:50.951Z,930.98
2017-03-03T01:31:19.209Z,930.94
2017-03-03T01:31:47.419Z,931
2017-03-03T01:32:15.729Z,930.95
2017-03-03T01:32:44.044Z,930.93
2017-03-03T01:33:12.152Z,930.96
2017-03-03T01:33:40.436Z,930.97
2017-03-03T01:34:08.569Z,930.98
2017-03-03T01:34:36.807Z,931
2017-03-03T01:35:05.018Z,930.97
2017-03-03T01:35:33.092Z,930.99
2017-03-03T01:36:01.233Z,930.97
2017-03-03T01:36:29.518Z,931
2017-03-03T01:36:57.768Z,930.99
2017-03-03T01:37:26.042Z,931.01
2017-03-03T01:37:54.292Z,931
2017-03-03T01:38:22.607Z,931
2017-03-03T01:38:50.803Z,930.99
2017-03-03T01:39:18.952Z,930.99
2017-03-03T01:39:47.002Z,931.01
2017-03-03T01:40:15.260Z,930.98
2017-03-03T01:40:43.349Z,930.96
2017-03-03T01:41:11.529Z,931.01
2017-03-03T01:41:39.800Z,931.01
2017-03-03T01:42:07.901Z,931.02
2017-03-03T01:42:36.201Z,930.98
2017-03-03T01:43:04.315Z,931.02
2017-03-03T01:43:32.332Z,930.96
2017-03-03T01:44:00.623Z,930.99
2017-03-03T01:44:28.588Z,931
2017-03-03T01:44:56.702Z,931.01
2017-03-03T01:45:24.889Z,930.98
2017-03-03T01:45:52.927Z,930.99
2017-03-03T01:46:21.373Z,930.96
2017-03-03T01:46:49.639Z,930.98
2017-03-03T01:47:17.720Z,930.97
2017-03-03T01:47:45.884Z,930.98
2017-03-03T01:48:14.102Z,930.97
2017-03-03T01:48:42.326Z,930.96
2017-03-03T01:49:10.409Z,930.97
2017-03-03T01:49:38.678Z,930.98
2017-03-03T01:50:06.778Z,930.97
2017-03-03T01:50:34.983Z,930.97
2017-03-03T01:51:03.098Z,930.99
2017-03-03T01:51:31.438Z,930.97
2017-03-03T01:51:59.652Z,930.96
2017-03-03T01:52:27.935Z,930.98
2017-03-03T01:52:56.003Z,930.98
2017-03-03T01:53:24.239Z,930.99
2017-03-03T01:53:52.388Z,931.01
2017-03-03T01:54:20.457Z,930.98
2017-03-03T01:54:48.691Z,930.94
2017-03-03T01:55:16.928Z,930.97
2017-03-03T01:55:44.998Z,930.99
2017-03-03T01:56:13.119Z,931
2017-03-03T01:56:41.470Z,931
2017-03-03T01:57:09.588Z,930.99
2017-03-03T01:57:37.705Z,931.01
2017-03-03T01:58:05.891Z,930.99
2017-03-03T01:58:33.950Z,931.03
2017-03-03T01:59:02.045Z,931
2017-03-03T01:59:30.338Z,931
2017-03-03T01:59:58.655Z,931.02
2017-03-03T02:00:26.962Z,931
2017-03-03T02:00:55.241Z,930.97
2017-03-03T02:01:23.440Z,930.98
2017-03-03T02:01:51.739Z,930.97
2017-03-03T02:02:20.008Z,930.97
2017-03-03T02:02:48.129Z,930.96
2017-03-03T02:03:16.315Z,930.99
2017-03-03T02:03:44.421Z,931.01
2017-03-03T02:04:12.443Z,931
2017-03-03T02:04:40.544Z,931.02
2017-03-03T02:05:08.721Z,930.98
2017-03-03T02:05:36.881Z,930.99
2017-03-03T02:06:05.106Z,930.99
2017-03-03T02:06:33.310Z,930.98
2017-03-03T02:07:01.614Z,930.97
2017-03-03T02:07:29.872Z,931.02
2017-03-03T02:07:57.875Z,931.01
2017-03-03T02:08:25.892Z,930.97
2017-03-03T02:08:54.140Z,930.98
2017-03-03T02:09:22.455Z,931
2017-03-03T02:09:50.640Z,931.01
2017-03-03T02:10:18.787Z,931.01
2017-03-03T02:10:46.975Z,931.03
2017-03-03T02:11:15.129Z,931.03
2017-03-03T02:11:43.393Z,931.01
2017-03-03T02:12:11.522Z,931
2017-03-03T02:12:39.400Z,931.03
2017-03-03T02:13:07.692Z,931
2017-03-03T02:13:35.780Z,930.95
2017-03-03T02:14:03.922Z,930.97
2017-03-03T02:14:32.022Z,930.97
2017-03-03T02:15:00.127Z,930.98
2017-03-03T02:15:28.204Z,930.97
2017-03-03T02:15:56.346Z,930.98
2017-03-03T02:16:24.454Z,930.96
2017-03-03T02:16:52.598Z,930.94
2017-03-03T02:17:20.824Z,930.96
2017-03-03T02:17:49.088Z,930.93
2017-03-03T02:18:17.256Z,930.93
2017-03-03T02:18:45.373Z,930.92
2017-03-03T02:19:13.549Z,930.94
2017-03-03T02:19:41.703Z,930.92
2017-03-03T02:20:09.969Z,930.9
2017-03-03T02:20:38.238Z,930.92
2017-03-03T02:21:06.604Z,930.94
2017-03-03T02:21:34.882Z,930.89
2017-03-03T02:22:03.039Z,930.89
2017-03-03T02:22:31.342Z,930.89
2017-03-03T02:22:59.532Z,930.9
2017-03-03T02:23:27.698Z,930.9
2017-03-03T02:23:55.766Z,930.91
2017-03-03T02:24:23.943Z,930.86
2017-03-03T02:24:52.179Z,930.91
2017-03-03T02:25:20.416Z,930.91
2017-03-03T02:25:48.493Z,930.9
2017-03-03T02:26:16.933Z,930.9
2017-03-03T02:26:44.981Z,930.86
2017-03-03T02:27:13.163Z,930.84
2017-03-03T02:27:41.319Z,930.85
2017-03-03T02:28:09.458Z,930.84
2017-03-03T02:28:37.561Z,930.84
2017-03-03T02:29:05.762Z,930.85
2017-03-03T02:29:33.852Z,930.84
2017-03-03T02:30:02.015Z,930.82
2017-03-03T02:30:30.121Z,930.82
2017-03-03T02:30:58.299Z,930.83
2017-03-03T02:31:26.563Z,930.85
2017-03-03T02:31:54.752Z,930.84
2017-03-03T02:32:22.852Z,930.84
2017-03-03T02:32:51.146Z,930.81
2017-03-03T02:33:19.246Z,930.82
2017-03-03T02:33:47.508Z,930.84
2017-03-03T02:34:15.514Z,930.85
2017-03-03T02:34:43.541Z,930.85
2017-03-03T02:35:11.656Z,930.84
2017-03-03T02:35:39.798Z,930.84
2017-03-03T02:36:08.031Z,930.8
2017-03-03T02:36:36.257Z,930.82
2017-03-03T02:37:04.366Z,930.85
2017-03-03T02:37:32.380Z,930.83
2017-03-03T02:38:00.681Z,930.84
2017-03-03T02:38:28.924Z,930.8
2017-03-03T02:38:57.089Z,930.83
2017-03-03T02:39:25.175Z,930.82
2017-03-03T02:39:53.424Z,930.79
2017-03-03T02:40:21.415Z,930.82
2017-03-03T02:40:49.669Z,930.81
2017-03-03T02:41:17.884Z,930.81
2017-03-03T02:41:46.051Z,930.77
2017-03-03T02:42:14.099Z,930.79
2017-03-03T02:42:42.126Z,930.8
2017-03-03T02:43:10.435Z,930.79
2017-03-03T02:43:38.692Z,930.8
2017-03-03T02:44:06.761Z,930.79
2017-03-03T02:44:34.914Z,930.82
2017-03-03T02:45:03.094Z,930.78
2017-03-03T02:45:31.271Z,930.78
2017-03-03T02:45:59.530Z,930.81
2017-03-03T02:46:27.756Z,930.77
2017-03-03T02:46:56.024Z,930.79
2017-03-03T02:47:24.336Z,930.78
2017-03-03T02:47:52.458Z,930.77
2017-03-03T02:48:20.520Z,930.8
2017-03-03T02:48:48.635Z,930.78
2017-03-03T02:49:16.731Z,930.77
2017-03-03T02:49:44.999Z,930.77
2017-03-03T02:50:13.116Z,930.8
2017-03-03T02:50:41.530Z,930.78
2017-03-03T02:51:09.648Z,930.77
2017-03-03T02:51:37.941Z,930.78
2017-03-03T02:52:06.221Z,930.77
2017-03-03T02:52:34.420Z,930.77
2017-03-03T02:53:02.569Z,930.77
2017-03-03T02:53:30.587Z,930.78
2017-03-03T02:53:58.711Z,930.72
2017-03-03T02:54:26.817Z,930.75
2017-03-03T02:54:54.925Z,930.76
2017-03-03T02:55:22.965Z,930.74
2017-03-03T02:55:51.117Z,930.77
2017-03-03T02:56:19.412Z,930.74
2017-03-03T02:56:47.672Z,930.74
2017-03-03T02:57:15.922Z,930.75
2017-03-03T02:57:43.994Z,930.77
2017-03-03T02:58:11.993Z,930.76
2017-03-03T02:58:40.096Z,930.76
2017-03-03T02:59:08.188Z,930.74
2017-03-03T02:59:36.453Z,930.75
2017-03-03T03:00:05.442Z,930.74
2017-03-03T03:00:33.706Z,930.75
2017-03-03T03:01:01.889Z,930.76
2017-03-03T03:01:29.951Z,930.74
2017-03-03T03:01:59.534Z,930.74
2017-03-03T03:02:28.095Z,930.74
2017-03-03T03:02:56.193Z,930.74
2017-03-03T03:03:24.305Z,930.73
2017-03-03T03:03:52.572Z,930.7
2017-03-03T03:04:20.813Z,930.69
2017-03-03T03:04:49.078Z,930.7
2017-03-03T03:05:17.092Z,930.73
2017-03-03T03:05:45.327Z,930.7
2017-03-03T03:06:13.524Z,930.71
2017-03-03T03:06:41.597Z,930.68
2017-03-03T03:07:09.567Z,930.67
2017-03-03T03:07:37.840Z,930.68
2017-03-03T03:08:05.922Z,930.66
2017-03-03T03:08:34.250Z,930.67
2017-03-03T03:09:02.446Z,930.64
2017-03-03T03:09:30.735Z,930.67
2017-03-03T03:09:58.779Z,930.62
2017-03-03T03:10:26.966Z,930.61
2017-03-03T03:10:55.080Z,930.62
2017-03-03T03:11:23.275Z,930.59
2017-03-03T03:11:51.566Z,930.58
2017-03-03T03:12:19.787Z,930.58
2017-03-03T03:12:47.861Z,930.58
2017-03-03T03:13:16.052Z,930.6
2017-03-03T03:13:44.251Z,930.55
2017-03-03T03:14:12.523Z,930.59
2017-03-03T03:14:40.610Z,930.57
2017-03-03T03:15:08.708Z,930.59
2017-03-03T03:15:36.991Z,930.57
2017-03-03T03:16:05.067Z,930.58
2017-03-03T03:16:33.251Z,930.58
2017-03-03T03:17:01.483Z,930.59
2017-03-03T03:17:29.538Z,930.56
2017-03-03T03:17:57.772Z,930.58
2017-03-03T03:18:25.653Z,930.57
2017-03-03T03:18:53.949Z,930.58
2017-03-03T03:19:22.064Z,930.6
2017-03-03T03:19:50.246Z,930.59
2017-03-03T03:20:18.515Z,930.61
2017-03-03T03:20:46.781Z,930.61
2017-03-03T03:21:14.889Z,930.6
2017-03-03T03:21:43.368Z,930.63
2017-03-03T03:22:11.418Z,930.62
2017-03-03T03:22:39.522Z,930.61
2017-03-03T03:23:07.710Z,930.6
2017-03-03T03:23:35.829Z,930.59
2017-03-03T03:24:04.075Z,930.59
2017-03-03T03:24:32.344Z,930.6
2017-03-03T03:25:00.582Z,930.57
2017-03-03T03:25:28.691Z,930.6
2017-03-03T03:25:56.724Z,930.57
2017-03-03T03:26:24.893Z,930.58
2017-03-03T03:26:53.423Z,930.57
2017-03-03T03:27:21.589Z,930.57
2017-03-03T03:27:49.688Z,930.56
2017-03-03T03:28:17.839Z,930.54
2017-03-03T03:28:45.992Z,930.54
2017-03-03T03:29:14.091Z,930.59
2017-03-03T03:29:42.299Z,930.56
2017-03-03T03:30:10.395Z,930.6
2017-03-03T03:30:38.424Z,930.54
2017-03-03T03:31:06.571Z,930.55
2017-03-03T03:31:34.732Z,930.54
2017-03-03T03:32:03.224Z,930.56
2017-03-03T03:32:31.366Z,930.51
2017-03-03T03:32:59.535Z,930.54
2017-03-03T03:33:27.779Z,930.51
2017-03-03T03:33:55.770Z,930.52
2017-03-03T03:34:23.856Z,930.51
2017-03-03T03:34:51.979Z,930.49
2017-03-03T03:35:19.956Z,930.45
2017-03-03T03:35:47.985Z,930.45
2017-03-03T03:36:16.295Z,930.46
2017-03-03T03:36:44.662Z,930.45
2017-03-03T03:37:12.667Z,930.42
2017-03-03T03:37:40.915Z,930.45
2017-03-03T03:38:09.079Z,930.45
2017-03-03T03:38:37.376Z,930.42
2017-03-03T03:39:05.581Z,930.41
2017-03-03T03:39:33.785Z,930.42
2017-03-03T03:40:02.088Z,930.39
2017-03-03T03:40:30.370Z,930.38
2017-03-03T03:40:58.471Z,930.43
2017-03-03T03:41:26.748Z,930.42
2017-03-03T03:41:54.855Z,930.39
2017-03-03T03:42:23.000Z,930.43
2017-03-03T03:42:51.231Z,930.43
2017-03-03T03:43:19.472Z,930.44
2017-03-03T03:43:47.679Z,930.44
2017-03-03T03:44:15.838Z,930.43
2017-03-03T03:44:44.024Z,930.48
2017-03-03T03:45:12.134Z,930.42
2017-03-03T03:45:40.393Z,930.48
2017-03-03T03:46:08.480Z,930.48
2017-03-03T03:46:36.758Z,930.49
2017-03-03T03:47:04.867Z,930.5
2017-03-03T03:47:33.129Z,930.48
2017-03-03T03:48:01.240Z,930.47
2017-03-03T03:48:29.339Z,930.51
2017-03-03T03:48:57.498Z,930.47
2017-03-03T03:49:25.668Z,930.48
2017-03-03T03:49:53.910Z,930.48
2017-03-03T03:50:22.146Z,930.48
2017-03-03T03:50:50.345Z,930.47
2017-03-03T03:51:18.520Z,930.47
2017-03-03T03:51:46.689Z,930.46
2017-03-03T03:52:14.950Z,930.43
2017-03-03T03:52:43.181Z,930.44
2017-03-03T03:53:11.281Z,930.48
2017-03-03T03:53:39.465Z,930.48
2017-03-03T03:54:07.428Z,930.43
2017-03-03T03:54:35.323Z,930.45
2017-03-03T03:55:03.528Z,930.48
2017-03-03T03:55:31.804Z,930.45
2017-03-03T03:56:00.086Z,930.46
2017-03-03T03:56:28.188Z,930.41
2017-03-03T03:56:56.534Z,930.46
2017-03-03T03:57:24.589Z,930.49
2017-03-03T03:57:52.863Z,930.47
2017-03-03T03:58:21.143Z,930.5
2017-03-03T03:58:49.423Z,930.47
2017-03-03T03:59:17.709Z,930.46
2017-03-03T03:59:46.001Z,930.49
2017-03-03T04:00:14.275Z,930.45
2017-03-03T04:00:42.474Z,930.46
2017-03-03T04:01:10.671Z,930.45
2017-03-03T04:01:38.737Z,930.44
2017-03-03T04:02:06.987Z,930.44
2017-03-03T04:02:34.923Z,930.47
2017-03-03T04:03:03.067Z,930.46
2017-03-03T04:03:31.192Z,930.48
2017-03-03T04:03:59.252Z,930.44
2017-03-03T04:04:27.443Z,930.44
2017-03-03T04:04:55.627Z,930.44
2017-03-03T04:05:23.921Z,930.46
2017-03-03T04:05:52.187Z,930.45
2017-03-03T04:06:20.387Z,930.45
2017-03-03T04:06:48.653Z,930.43
2017-03-03T04:07:16.929Z,930.45
2017-03-03T04:07:45.051Z,930.47
2017-03-03T04:08:13.198Z,930.43
2017-03-03T04:08:41.305Z,930.42
2017-03-03T04:09:09.430Z,930.44
2017-03-03T04:09:37.673Z,930.44
2017-03-03T04:10:05.763Z,930.38
2017-03-03T04:10:34.052Z,930.38
2017-03-03T04:11:02.168Z,930.37
2017-03-03T04:11:30.343Z,930.37
2017-03-03T04:11:58.576Z,930.33
2017-03-03T04:12:26.782Z,930.31
2017-03-03T04:12:54.948Z,930.29
2017-03-03T04:13:23.179Z,930.33
2017-03-03T04:13:51.455Z,930.27
2017-03-03T04:14:19.676Z,930.3
2017-03-03T04:14:47.772Z,930.3
2017-03-03T04:15:15.846Z,930.3
2017-03-03T04:15:44.046Z,930.32
2017-03-03T04:16:12.170Z,930.3
2017-03-03T04:16:40.366Z,930.3
2017-03-03T04:17:08.546Z,930.31
2017-03-03T04:17:36.717Z,930.26
2017-03-03T04:18:05.010Z,930.23
2017-03-03T04:18:33.072Z,930.26
2017-03-03T04:19:01.252Z,930.27
2017-03-03T04:19:29.495Z,930.26
2017-03-03T04:19:57.639Z,930.25
2017-03-03T04:20:25.841Z,930.24
2017-03-03T04:20:54.143Z,930.22
2017-03-03T04:21:22.401Z,930.23
2017-03-03T04:21:50.671Z,930.25
2017-03-03T04:22:18.872Z,930.22
2017-03-03T04:22:46.931Z,930.22
2017-03-03T04:23:15.204Z,930.19
2017-03-03T04:23:43.251Z,930.21
2017-03-03T04:24:11.476Z,930.2
2017-03-03T04:24:39.741Z,930.22
2017-03-03T04:25:07.847Z,930.19
2017-03-03T04:25:36.055Z,930.16
2017-03-03T04:26:04.214Z,930.21
2017-03-03T04:26:32.349Z,930.19
2017-03-03T04:27:00.753Z,930.17
2017-03-03T04:27:28.929Z,930.16
2017-03-03T04:27:57.020Z,930.22
2017-03-03T04:28:25.178Z,930.2
2017-03-03T04:28:53.485Z,930.22
2017-03-03T04:29:21.725Z,930.21
2017-03-03T04:29:49.816Z,930.17
2017-03-03T04:30:18.043Z,930.21
2017-03-03T04:30:46.188Z,930.24
2017-03-03T04:31:14.493Z,930.2
2017-03-03T04:31:42.594Z,930.22
2017-03-03T04:32:10.871Z,930.18
2017-03-03T04:32:39.085Z,930.16
2017-03-03T04:33:07.143Z,930.18
2017-03-03T04:33:35.266Z,930.2
2017-03-03T04:34:03.466Z,930.18
2017-03-03T04:34:31.715Z,930.18
2017-03-03T04:35:00.532Z,930.17
2017-03-03T04:35:28.633Z,930.21
2017-03-03T04:35:56.837Z,930.19
2017-03-03T04:36:25.895Z,930.15
2017-03-03T04:36:54.217Z,930.2
2017-03-03T04:37:22.529Z,930.17
2017-03-03T04:37:50.600Z,930.18
2017-03-03T04:38:18.769Z,930.17
2017-03-03T04:38:47.015Z,930.16
2017-03-03T04:39:15.202Z,930.18
2017-03-03T04:39:43.484Z,930.17
2017-03-03T04:40:11.653Z,930.16
2017-03-03T04:40:39.687Z,930.13
2017-03-03T04:41:07.944Z,930.12
2017-03-03T04:41:36.057Z,930.1
2017-03-03T04:42:04.279Z,930.15
2017-03-03T04:42:32.502Z,930.08
2017-03-03T04:43:00.829Z,930.08
2017-03-03T04:43:28.998Z,930.11
2017-03-03T04:43:57.287Z,930.15
2017-03-03T04:44:25.557Z,930.12
2017-03-03T04:44:53.843Z,930.12
2017-03-03T04:45:22.100Z,930.15
2017-03-03T04:45:50.319Z,930.17
2017-03-03T04:46:18.544Z,930.11
2017-03-03T04:46:46.701Z,930.14
2017-03-03T04:47:14.784Z,930.13
2017-03-03T04:47:43.077Z,930.17
2017-03-03T04:48:11.291Z,930.11
2017-03-03T04:48:39.561Z,930.11
2017-03-03T04:49:07.751Z,930.14
2017-03-03T04:49:36.075Z,930.11
2017-03-03T04:50:04.181Z,930.1
2017-03-03T04:50:32.293Z,930.11
2017-03-03T04:51:00.508Z,930.12
2017-03-03T04:51:28.504Z,930.11
2017-03-03T04:51:56.736Z,930.09
2017-03-03T04:52:24.931Z,930.08
2017-03-03T04:52:53.228Z,930.06
2017-03-03T04:53:21.392Z,930.06
2017-03-03T04:53:49.570Z,930.06
2017-03-03T04:54:17.789Z,930.05
2017-03-03T04:54:46.034Z,930.08
2017-03-03T04:55:14.122Z,930.08
2017-03-03T04:55:42.301Z,930.07
2017-03-03T04:56:10.456Z,930.1
2017-03-03T04:56:38.672Z,930.07
2017-03-03T04:57:06.898Z,930.08
2017-03-03T04:57:35.231Z,930.06
2017-03-03T04:58:03.405Z,930.09
2017-03-03T04:58:31.530Z,930.04
2017-03-03T04:58:59.905Z,930.01
2017-03-03T04:59:28.093Z,930.02
2017-03-03T04:59:56.346Z,930.06
2017-03-03T05:00:24.448Z,930.04
2017-03-03T05:00:52.681Z,930.01
2017-03-03T05:01:20.893Z,930.04
2017-03-03T05:01:49.097Z,930.04
2017-03-03T05:02:17.291Z,930.05
2017-03-03T05:02:45.600Z,930.04
2017-03-03T05:03:13.891Z,930.01
2017-03-03T05:03:42.167Z,929.98
2017-03-03T05:04:10.296Z,930.03
2017-03-03T05:04:38.484Z,930
2017-03-03T05:05:06.609Z,930.01
2017-03-03T05:05:34.806Z,929.97
2017-03-03T05:06:02.999Z,929.97
2017-03-03T05:06:31.151Z,929.98
2017-03-03T05:06:59.304Z,929.99
2017-03-03T05:07:27.376Z,929.97
2017-03-03T05:07:55.460Z,929.95
2017-03-03T05:08:23.690Z,929.99
2017-03-03T05:08:51.833Z,930
2017-03-03T05:09:20.145Z,930
2017-03-03T05:09:48.179Z,929.99
2017-03-03T05:10:16.302Z,929.98
2017-03-03T05:10:44.576Z,929.94
2017-03-03T05:11:12.809Z,929.98
2017-03-03T05:11:40.885Z,929.96
2017-03-03T05:12:09.163Z,929.96
2017-03-03T05:12:37.394Z,929.97
2017-03-03T05:13:05.658Z,929.99
2017-03-03T05:13:33.751Z,929.97
2017-03-03T05:14:02.092Z,930.02
2017-03-03T05:14:30.333Z,930.01
2017-03-03T05:14:58.568Z,929.99
2017-03-03T05:15:26.723Z,930.03
2017-03-03T05:15:55.012Z,930.02
2017-03-03T05:16:23.186Z,929.97
2017-03-03T05:16:51.234Z,929.99
2017-03-03T05:17:19.396Z,929.99
2017-03-03T05:17:47.560Z,929.95
2017-03-03T05:18:15.721Z,929.98
2017-03-03T05:18:43.918Z,929.95
2017-03-03T05:19:12.184Z,929.98
2017-03-03T05:19:40.480Z,929.96
2017-03-03T05:20:08.575Z,929.97
2017-03-03T05:20:36.773Z,929.94
2017-03-03T05:21:04.816Z,929.95
2017-03-03T05:21:33.030Z,929.91
2017-03-03T05:22:01.274Z,929.88
2017-03-03T05:22:29.421Z,929.94
2017-03-03T05:22:57.609Z,929.9
2017-03-03T05:23:25.863Z,929.84
2017-03-03T05:23:54.043Z,929.82
2017-03-03T05:24:22.247Z,929.86
2017-03-03T05:24:50.393Z,929.81
2017-03-03T05:25:18.558Z,929.82
2017-03-03T05:25:46.633Z,929.83
2017-03-03T05:26:14.789Z,929.8
2017-03-03T05:26:42.860Z,929.82
2017-03-03T05:27:11.040Z,929.82
2017-03-03T05:27:39.217Z,929.8
2017-03-03T05:28:07.296Z,929.81
2017-03-03T05:28:35.366Z,929.77
2017-03-03T05:29:03.471Z,929.79
2017-03-03T05:29:31.635Z,929.74
2017-03-03T05:29:59.923Z,929.76
2017-03-03T05:30:28.183Z,929.76
2017-03-03T05:30:56.270Z,929.75
2017-03-03T05:31:24.515Z,929.7
2017-03-03T05:31:52.544Z,929.73
2017-03-03T05:32:20.856Z,929.66
2017-03-03T05:32:49.034Z,929.67
2017-03-03T05:33:17.157Z,929.66
2017-03-03T05:33:45.396Z,929.65
2017-03-03T05:34:13.742Z,929.64
2017-03-03T05:34:42.006Z,929.66
2017-03-03T05:35:10.124Z,929.65
2017-03-03T05:35:38.244Z,929.63
2017-03-03T05:36:06.370Z,929.63
2017-03-03T05:36:34.523Z,929.62
2017-03-03T05:37:02.789Z,929.65
2017-03-03T05:37:30.838Z,929.64
2017-03-03T05:37:59.104Z,929.63
2017-03-03T05:38:27.360Z,929.64
2017-03-03T05:38:55.623Z,929.64
2017-03-03T05:39:23.809Z,929.65
2017-03-03T05:39:51.883Z,929.61
2017-03-03T05:40:20.217Z,929.59
2017-03-03T05:40:48.387Z,929.58
2017-03-03T05:41:16.471Z,929.55
2017-03-03T05:41:44.676Z,929.52
2017-03-03T05:42:12.858Z,929.51
2017-03-03T05:42:40.867Z,929.51
2017-03-03T05:43:08.847Z,929.5
2017-03-03T05:43:36.908Z,929.5
2017-03-03T05:44:05.144Z,929.5
2017-03-03T05:44:33.240Z,929.46
2017-03-03T05:45:01.439Z,929.48
2017-03-03T05:45:29.515Z,929.46
2017-03-03T05:45:57.606Z,929.46
2017-03-03T05:46:25.629Z,929.46
2017-03-03T05:46:53.709Z,929.4
2017-03-03T05:47:21.983Z,929.43
2017-03-03T05:47:50.092Z,929.47
2017-03-03T05:48:18.395Z,929.37
2017-03-03T05:48:46.631Z,929.41
2017-03-03T05:49:14.845Z,929.38
2017-03-03T05:49:43.143Z,929.38
2017-03-03T05:50:11.519Z,929.39
2017-03-03T05:50:39.833Z,929.41
2017-03-03T05:51:08.109Z,929.42
2017-03-03T05:51:36.233Z,929.38
2017-03-03T05:52:04.416Z,929.38
2017-03-03T05:52:32.632Z,929.41
2017-03-03T05:53:00.810Z,929.38
2017-03-03T05:53:29.067Z,929.39